createdAt,value
2023-04-10T00:01:22.376Z,74.86
2023-04-10T00:03:50.739Z,74.98
2023-04-10T00:06:19.059Z,73.55
2023-04-10T00:08:47.230Z,74.38
2023-04-10T00:11:15.651Z,74.23
2023-04-10T00:13:45.218Z,73.48
2023-04-10T00:16:13.492Z,73.24
2023-04-10T00:18:41.717Z,72.52
2023-04-10T00:21:09.962Z,75.98
2023-04-10T00:23:38.719Z,74.13
2023-04-10T00:26:07.357Z,75.27
2023-04-10T00:28:37.997Z,65.44
2023-04-10T00:31:07.843Z,76.03
2023-04-10T00:33:36.041Z,76.18
2023-04-10T00:36:04.406Z,71.97
2023-04-10T00:38:32.680Z,69.13
2023-04-10T00:41:00.913Z,78.54
2023-04-10T00:43:29.161Z,71.45
2023-04-10T00:45:57.517Z,72.82
2023-04-10T00:48:27.443Z,74.82
2023-04-10T00:50:55.868Z,69.87
2023-04-10T00:53:24.192Z,76.06
2023-04-10T00:55:52.761Z,75.74
2023-04-10T00:58:20.998Z,74.32
2023-04-10T01:00:49.632Z,69.28
2023-04-10T01:03:20.894Z,74.63
2023-04-10T01:06:03.720Z,74.50
2023-04-10T01:08:46.562Z,75.88
2023-04-10T01:11:28.910Z,75.41
2023-04-10T01:14:06.750Z,74.98
2023-04-10T01:16:44.268Z,67.07
2023-04-10T01:19:29.000Z,73.55
2023-04-10T01:22:00.344Z,75.82
2023-04-10T01:24:51.308Z,66.37
2023-04-10T01:27:38.015Z,75.60
2023-04-10T01:30:12.705Z,74.05
2023-04-10T01:32:42.606Z,73.38
2023-04-10T01:35:11.942Z,67.95
2023-04-10T01:37:44.672Z,74.73
2023-04-10T01:40:18.932Z,73.09
2023-04-10T01:42:51.756Z,74.57
2023-04-10T01:45:25.453Z,76.81
2023-04-10T01:47:54.422Z,75.78
2023-04-10T01:50:24.511Z,75.17
2023-04-10T01:52:53.745Z,70.12
2023-04-10T01:55:22.729Z,74.13
2023-04-10T01:57:51.803Z,70.25
2023-04-10T02:00:22.518Z,70.52
2023-04-10T02:02:51.081Z,76.62
2023-04-10T02:05:20.285Z,76.12
2023-04-10T02:07:58.641Z,74.74
2023-04-10T02:10:31.685Z,70.15
2023-04-10T02:13:06.740Z,76.29
2023-04-10T02:15:37.940Z,77.45
2023-04-10T02:18:08.368Z,68.06
2023-04-10T02:20:37.399Z,73.47
2023-04-10T02:23:06.764Z,73.08
2023-04-10T02:25:35.864Z,73.49
2023-04-10T02:28:06.116Z,72.59
2023-04-10T02:30:36.225Z,69.57
2023-04-10T02:33:04.907Z,72.53
2023-04-10T02:35:33.262Z,77.51
2023-04-10T02:38:01.544Z,72.61
2023-04-10T02:40:29.795Z,74.20
2023-04-10T02:42:58.259Z,74.70
2023-04-10T02:45:26.471Z,75.11
2023-04-10T02:47:56.195Z,68.48
2023-04-10T02:50:24.465Z,75.08
2023-04-10T02:52:52.673Z,65.26
2023-04-10T02:55:20.946Z,70.81
2023-04-10T02:57:49.190Z,74.88
2023-04-10T03:00:19.320Z,72.93
2023-04-10T03:02:47.748Z,75.07
2023-04-10T03:05:17.537Z,76.27
2023-04-10T03:07:45.881Z,67.91
2023-04-10T03:10:14.105Z,78.08
2023-04-10T03:12:42.344Z,72.95
2023-04-10T03:15:11.897Z,75.85
2023-04-10T03:17:40.195Z,74.91
2023-04-10T03:20:10.743Z,75.03
2023-04-10T03:22:41.100Z,70.31
2023-04-10T03:25:10.537Z,68.38
2023-04-10T03:27:39.898Z,74.48
2023-04-10T03:30:11.032Z,70.91
2023-04-10T03:32:42.373Z,80.80
2023-04-10T03:35:11.915Z,73.26
2023-04-10T03:37:42.263Z,77.04
2023-04-10T03:40:11.968Z,70.19
2023-04-10T03:42:40.367Z,66.68
2023-04-10T03:45:10.233Z,72.29
2023-04-10T03:47:38.605Z,76.45
2023-04-10T03:50:08.006Z,74.99
2023-04-10T03:52:36.237Z,74.96
2023-04-10T03:55:06.930Z,72.90
2023-04-10T03:57:35.240Z,75.25
2023-04-10T04:00:03.915Z,66.52
2023-04-10T04:02:32.331Z,73.17
2023-04-10T04:05:00.970Z,78.31
2023-04-10T04:07:29.232Z,74.60
2023-04-10T04:09:58.233Z,75.76
2023-04-10T04:12:27.974Z,74.77
2023-04-10T04:14:56.166Z,70.08
2023-04-10T04:17:24.531Z,63.67
2023-04-10T04:19:52.753Z,62.70
2023-04-10T04:22:22.151Z,75.47
2023-04-10T04:24:50.469Z,74.94
2023-04-10T04:27:20.147Z,76.82
2023-04-10T04:29:49.856Z,74.46
2023-04-10T04:32:18.263Z,76.50
2023-04-10T04:34:46.543Z,76.20
2023-04-10T04:37:14.743Z,77.45
2023-04-10T04:39:43.000Z,69.40
2023-04-10T04:42:11.187Z,76.07
2023-04-10T04:44:39.454Z,77.25
2023-04-10T04:47:09.004Z,69.20
2023-04-10T04:49:37.234Z,72.57
2023-04-10T04:52:05.745Z,74.92
2023-04-10T04:54:33.960Z,74.95
2023-04-10T04:57:02.529Z,75.34
2023-04-10T04:59:30.746Z,73.63
2023-04-10T05:01:59.603Z,73.21
2023-04-10T05:04:29.349Z,68.54
2023-04-10T05:06:57.578Z,71.49
2023-04-10T05:09:25.844Z,68.34
2023-04-10T05:11:54.514Z,75.29
2023-04-10T05:14:23.085Z,71.71
2023-04-10T05:16:51.310Z,74.68
2023-04-10T05:19:19.575Z,74.57
2023-04-10T05:21:49.252Z,74.01
2023-04-10T05:24:17.472Z,70.94
2023-04-10T05:26:45.726Z,72.57
2023-04-10T05:29:13.927Z,75.46
2023-04-10T05:31:42.143Z,73.31
2023-04-10T05:34:10.397Z,69.93
2023-04-10T05:36:38.603Z,68.87
2023-04-10T05:39:08.480Z,68.31
2023-04-10T05:41:36.966Z,69.60
2023-04-10T05:44:05.488Z,63.78
2023-04-10T05:46:34.062Z,65.43
2023-04-10T05:49:03.513Z,63.39
2023-04-10T05:51:31.963Z,62.82
2023-04-10T05:54:01.076Z,66.36
2023-04-10T05:56:30.674Z,67.69
2023-04-10T05:58:58.876Z,57.21
2023-04-10T06:01:27.406Z,62.18
2023-04-10T06:03:55.983Z,60.38
2023-04-10T06:06:25.978Z,57.85
2023-04-10T06:08:54.866Z,61.54
2023-04-10T06:11:23.479Z,59.28
2023-04-10T06:13:53.030Z,60.77
2023-04-10T06:16:21.434Z,58.13
2023-04-10T06:18:52.616Z,64.95
2023-04-10T06:21:21.128Z,59.12
2023-04-10T06:23:49.675Z,63.21
2023-04-10T06:26:18.210Z,61.77
2023-04-10T06:28:46.780Z,61.30
2023-04-10T06:31:16.462Z,56.23
2023-04-10T06:33:44.798Z,54.63
2023-04-10T06:36:13.005Z,54.29
2023-04-10T06:38:41.255Z,54.42
2023-04-10T06:41:09.795Z,57.66
2023-04-10T06:43:40.402Z,54.47
2023-04-10T06:46:09.035Z,58.78
2023-04-10T06:48:38.756Z,58.00
2023-04-10T06:51:07.754Z,53.12
2023-04-10T06:53:35.942Z,54.24
2023-04-10T06:56:04.400Z,54.68
2023-04-10T06:58:32.670Z,55.79
2023-04-10T07:01:04.320Z,56.50
2023-04-10T07:03:33.834Z,57.26
2023-04-10T07:06:04.138Z,55.79
2023-04-10T07:08:32.638Z,59.36
2023-04-10T07:11:01.370Z,56.22
2023-04-10T07:13:29.765Z,54.87
2023-04-10T07:15:57.992Z,55.03
2023-04-10T07:18:26.206Z,54.04
2023-04-10T07:20:54.426Z,54.63
2023-04-10T07:23:23.994Z,53.65
2023-04-10T07:25:52.820Z,55.01
2023-04-10T07:28:21.173Z,56.63
2023-04-10T07:30:49.407Z,59.61
2023-04-10T07:33:17.788Z,54.28
2023-04-10T07:35:46.086Z,56.40
2023-04-10T07:38:14.295Z,54.54
2023-04-10T07:40:43.899Z,55.21
2023-04-10T07:43:12.116Z,61.45
2023-04-10T07:45:40.414Z,55.27
2023-04-10T07:48:08.726Z,53.15
2023-04-10T07:50:37.229Z,53.87
2023-04-10T07:53:08.054Z,54.87
2023-04-10T07:55:40.080Z,55.98
2023-04-10T07:58:09.780Z,50.50
2023-04-10T08:00:38.390Z,49.15
2023-04-10T08:03:07.378Z,48.13
2023-04-10T08:05:36.452Z,50.94
2023-04-10T08:08:04.699Z,49.79
2023-04-10T08:10:32.998Z,52.04
2023-04-10T08:13:01.260Z,52.29
2023-04-10T08:15:30.923Z,50.68
2023-04-10T08:17:59.206Z,50.60
2023-04-10T08:20:29.165Z,51.76
2023-04-10T08:23:03.089Z,48.47
2023-04-10T08:25:41.224Z,48.90
2023-04-10T08:28:09.450Z,52.25
2023-04-10T08:30:39.096Z,48.92
2023-04-10T08:33:07.398Z,48.05
2023-04-10T08:35:35.624Z,49.65
2023-04-10T08:38:13.713Z,50.90
2023-04-10T08:40:44.580Z,50.45
2023-04-10T08:43:13.183Z,50.18
2023-04-10T08:45:43.556Z,51.55
2023-04-10T08:48:12.902Z,49.31
2023-04-10T08:50:46.427Z,53.05
2023-04-10T08:53:16.590Z,50.34
2023-04-10T08:55:46.820Z,49.81
2023-04-10T08:58:15.972Z,50.10
2023-04-10T09:00:45.648Z,52.82
2023-04-10T09:03:15.219Z,54.04
2023-04-10T09:05:43.752Z,51.77
2023-04-10T09:08:12.302Z,49.12
2023-04-10T09:10:40.622Z,48.30
2023-04-10T09:13:10.742Z,47.37
2023-04-10T09:16:00.572Z,47.12
2023-04-10T09:18:47.956Z,46.28
2023-04-10T09:21:18.348Z,46.17
2023-04-10T09:23:48.705Z,47.90
2023-04-10T09:26:28.284Z,46.82
2023-04-10T09:29:02.119Z,46.72
2023-04-10T09:31:34.606Z,48.22
2023-04-10T09:34:12.400Z,55.87
2023-04-10T09:36:42.410Z,47.24
2023-04-10T09:39:12.474Z,47.44
2023-04-10T09:41:52.594Z,46.76
2023-04-10T09:44:31.620Z,47.10
2023-04-10T09:47:16.611Z,47.38
2023-04-10T09:49:48.531Z,47.67
2023-04-10T09:52:20.888Z,46.64
2023-04-10T09:54:49.246Z,47.11
2023-04-10T09:57:20.162Z,45.53
2023-04-10T09:59:51.975Z,47.22
2023-04-10T10:02:23.637Z,47.78
2023-04-10T10:04:53.858Z,50.10
2023-04-10T10:07:24.368Z,47.37
2023-04-10T10:09:54.117Z,45.91
2023-04-10T10:12:27.679Z,45.66
2023-04-10T10:15:02.988Z,43.40
2023-04-10T10:17:45.832Z,44.56
2023-04-10T10:20:17.611Z,44.03
2023-04-10T10:22:47.529Z,44.31
2023-04-10T10:25:15.943Z,44.68
2023-04-10T10:27:44.946Z,44.69
2023-04-10T10:30:25.679Z,43.61
2023-04-10T10:33:00.800Z,44.69
2023-04-10T10:35:31.840Z,44.11
2023-04-10T10:38:01.479Z,43.81
2023-04-10T10:40:34.156Z,42.98
2023-04-10T10:43:16.203Z,44.07
2023-04-10T10:45:53.372Z,44.98
2023-04-10T10:48:22.972Z,45.29
2023-04-10T10:50:58.824Z,43.40
2023-04-10T10:53:38.796Z,42.96
2023-04-10T10:56:36.209Z,43.12
2023-04-10T10:59:04.548Z,44.53
2023-04-10T11:01:32.805Z,42.85
2023-04-10T11:04:12.548Z,43.95
2023-04-10T11:06:52.996Z,43.72
2023-04-10T11:09:50.583Z,42.47
2023-04-10T11:12:22.369Z,42.52
2023-04-10T11:15:00.638Z,41.46
2023-04-10T11:17:51.856Z,48.57
2023-04-10T11:20:27.147Z,47.36
2023-04-10T11:23:12.801Z,41.70
2023-04-10T11:25:52.321Z,42.81
2023-04-10T11:28:39.872Z,44.37
2023-04-10T11:31:23.381Z,42.88
2023-04-10T11:34:01.776Z,43.32
2023-04-10T11:36:32.166Z,43.66
2023-04-10T11:39:02.602Z,41.61
2023-04-10T11:41:32.627Z,44.25
2023-04-10T11:44:01.976Z,42.23
2023-04-10T11:46:31.106Z,42.50
2023-04-10T11:49:02.325Z,43.94
2023-04-10T11:51:32.852Z,44.10
2023-04-10T11:54:09.209Z,47.62
2023-04-10T11:56:38.541Z,44.08
2023-04-10T11:59:10.735Z,43.53
2023-04-10T12:01:42.669Z,42.05
2023-04-10T12:04:19.103Z,41.09
2023-04-10T12:06:50.128Z,41.20
2023-04-10T12:09:20.499Z,41.61
2023-04-10T12:11:53.407Z,41.25
2023-04-10T12:14:22.711Z,41.28
2023-04-10T12:16:52.713Z,41.23
2023-04-10T12:19:21.324Z,42.41
2023-04-10T12:21:51.356Z,41.65
2023-04-10T12:24:44.609Z,45.48
2023-04-10T12:27:18.541Z,41.85
2023-04-10T12:29:47.671Z,46.82
2023-04-10T12:32:16.640Z,41.32
2023-04-10T12:34:51.830Z,42.87
2023-04-10T12:37:21.654Z,41.95
2023-04-10T12:39:50.048Z,41.05
2023-04-10T12:42:20.817Z,43.58
2023-04-10T12:44:54.294Z,39.69
2023-04-10T12:47:23.076Z,39.65
2023-04-10T12:50:11.636Z,40.09
2023-04-10T12:52:43.485Z,39.75
2023-04-10T12:55:14.320Z,40.95
2023-04-10T12:57:43.991Z,39.49
2023-04-10T13:00:14.869Z,41.64
2023-04-10T13:02:43.510Z,40.08
2023-04-10T13:05:12.228Z,40.02
2023-04-10T13:07:42.517Z,40.97
2023-04-10T13:10:11.448Z,43.67
2023-04-10T13:12:40.692Z,40.28
2023-04-10T13:15:10.828Z,41.44
2023-04-10T13:17:40.927Z,41.52
2023-04-10T13:20:11.879Z,41.49
2023-04-10T13:22:41.428Z,43.66
2023-04-10T13:25:10.612Z,48.87
2023-04-10T13:27:38.787Z,41.56
2023-04-10T13:30:09.061Z,43.64
2023-04-10T13:32:37.259Z,45.17
2023-04-10T13:35:06.451Z,41.58
2023-04-10T13:37:34.817Z,42.12
2023-04-10T13:40:05.190Z,40.70
2023-04-10T13:42:33.413Z,41.05
2023-04-10T13:45:01.838Z,41.93
2023-04-10T13:47:30.106Z,42.79
2023-04-10T13:49:58.346Z,40.97
2023-04-10T13:52:26.612Z,40.52
2023-04-10T13:54:54.773Z,40.10
2023-04-10T13:57:24.375Z,45.00
2023-04-10T13:59:52.638Z,42.46
2023-04-10T14:02:20.978Z,41.76
2023-04-10T14:04:51.213Z,41.28
2023-04-10T14:07:20.280Z,44.93
2023-04-10T14:09:48.583Z,43.53
2023-04-10T14:12:17.404Z,41.48
2023-04-10T14:14:47.128Z,42.37
2023-04-10T14:17:15.346Z,42.53
2023-04-10T14:19:43.923Z,40.90
2023-04-10T14:22:12.119Z,39.92
2023-04-10T14:24:40.300Z,41.11
2023-04-10T14:27:08.507Z,40.34
2023-04-10T14:29:40.758Z,40.36
2023-04-10T14:32:17.128Z,41.37
2023-04-10T14:34:45.388Z,40.02
2023-04-10T14:37:15.315Z,38.82
2023-04-10T14:39:43.732Z,39.23
2023-04-10T14:42:11.935Z,40.02
2023-04-10T14:44:40.117Z,43.51
2023-04-10T14:47:08.374Z,40.89
2023-04-10T14:49:37.926Z,40.99
2023-04-10T14:52:06.108Z,42.96
2023-04-10T14:54:34.413Z,47.83
2023-04-10T14:57:04.314Z,44.09
2023-04-10T14:59:32.497Z,44.47
2023-04-10T15:02:01.219Z,41.67
2023-04-10T15:04:29.464Z,42.76
2023-04-10T15:06:59.021Z,42.01
2023-04-10T15:09:27.421Z,41.33
2023-04-10T15:11:56.909Z,42.71
2023-04-10T15:14:25.171Z,43.22
2023-04-10T15:16:54.228Z,41.41
2023-04-10T15:19:22.545Z,43.66
2023-04-10T15:21:50.926Z,46.52
2023-04-10T15:24:20.466Z,42.45
2023-04-10T15:26:48.924Z,43.09
2023-04-10T15:29:17.272Z,46.23
2023-04-10T15:31:45.462Z,44.63
2023-04-10T15:34:14.859Z,44.13
2023-04-10T15:36:43.047Z,44.85
2023-04-10T15:39:11.742Z,46.57
2023-04-10T15:41:41.311Z,43.84
2023-04-10T15:44:09.608Z,44.23
2023-04-10T15:46:37.930Z,45.96
2023-04-10T15:49:06.180Z,46.04
2023-04-10T15:51:34.386Z,48.42
2023-04-10T15:54:04.871Z,45.83
2023-04-10T15:56:33.906Z,45.53
2023-04-10T15:59:03.479Z,50.47
2023-04-10T16:01:31.740Z,46.65
2023-04-10T16:04:00.350Z,47.41
2023-04-10T16:06:29.153Z,49.45
2023-04-10T16:08:57.337Z,47.51
2023-04-10T16:11:25.584Z,48.23
2023-04-10T16:13:53.882Z,48.33
2023-04-10T16:16:23.487Z,49.46
2023-04-10T16:18:51.956Z,49.53
2023-04-10T16:21:21.755Z,53.96
2023-04-10T16:23:49.977Z,53.24
2023-04-10T16:26:18.546Z,57.97
2023-04-10T16:28:46.795Z,62.05
2023-04-10T16:31:14.999Z,66.86
2023-04-10T16:33:44.560Z,72.50
2023-04-10T16:36:12.859Z,73.06
2023-04-10T16:38:41.055Z,77.45
2023-04-10T16:41:10.014Z,78.17
2023-04-10T16:43:38.230Z,82.51
2023-04-10T16:46:07.396Z,81.18
2023-04-10T16:48:36.332Z,80.25
2023-04-10T16:51:07.005Z,84.90
2023-04-10T16:53:36.701Z,80.46
2023-04-10T16:56:05.475Z,84.51
2023-04-10T16:58:36.049Z,78.87
2023-04-10T17:01:18.155Z,79.27
2023-04-10T17:03:47.529Z,82.75
2023-04-10T17:06:17.271Z,82.17
2023-04-10T17:08:45.819Z,82.55
2023-04-10T17:11:14.347Z,82.93
2023-04-10T17:13:42.943Z,85.90
2023-04-10T17:16:11.554Z,84.69
2023-04-10T17:18:39.731Z,91.41
2023-04-10T17:21:13.053Z,88.15
2023-04-10T17:23:42.820Z,90.57
2023-04-10T17:26:15.274Z,85.51
2023-04-10T17:28:45.137Z,89.68
2023-04-10T17:31:13.752Z,90.20
2023-04-10T17:33:42.818Z,89.72
2023-04-10T17:36:12.727Z,85.78
2023-04-10T17:38:43.065Z,82.43
2023-04-10T17:41:15.371Z,89.53
2023-04-10T17:43:43.599Z,88.92
2023-04-10T17:46:15.592Z,88.92
2023-04-10T17:48:44.356Z,94.98
2023-04-10T17:51:12.824Z,87.43
2023-04-10T17:53:42.535Z,91.79
2023-04-10T17:56:19.425Z,90.67
2023-04-10T17:58:47.858Z,93.15
2023-04-10T18:01:23.685Z,91.38
2023-04-10T18:03:52.033Z,96.30
2023-04-10T18:06:20.306Z,100.00
2023-04-10T18:08:51.498Z,98.89
2023-04-10T18:11:19.719Z,99.67
2023-04-10T18:13:48.287Z,94.35
2023-04-10T18:16:17.520Z,100.00
2023-04-10T18:18:45.798Z,100.00
2023-04-10T18:21:14.324Z,97.66
2023-04-10T18:23:44.449Z,93.08
2023-04-10T18:26:14.250Z,86.60
2023-04-10T18:28:43.535Z,87.79
2023-04-10T18:31:14.675Z,83.64
2023-04-10T18:33:43.565Z,83.39
2023-04-10T18:36:14.040Z,86.54
2023-04-10T18:38:43.831Z,90.97
2023-04-10T18:41:13.593Z,100.00
2023-04-10T18:43:42.401Z,100.00
2023-04-10T18:46:13.324Z,100.00
2023-04-10T18:48:43.894Z,100.00
2023-04-10T18:51:12.179Z,100.00
2023-04-10T18:53:41.350Z,95.83
2023-04-10T18:56:09.796Z,93.72
2023-04-10T18:58:39.380Z,99.90
2023-04-10T19:01:08.354Z,100.00
2023-04-10T19:03:36.824Z,100.00
2023-04-10T19:06:05.318Z,100.00
2023-04-10T19:08:33.467Z,100.00
2023-04-10T19:11:05.557Z,100.00
2023-04-10T19:13:34.599Z,100.00
2023-04-10T19:16:07.894Z,100.00
2023-04-10T19:18:36.137Z,100.00
2023-04-10T19:21:04.364Z,100.00
2023-04-10T19:23:32.540Z,100.00
2023-04-10T19:26:01.010Z,100.00
2023-04-10T19:28:30.528Z,100.00
2023-04-10T19:30:58.738Z,100.00
2023-04-10T19:33:28.402Z,100.00
2023-04-10T19:35:58.035Z,100.00
2023-04-10T19:38:27.471Z,100.00
2023-04-10T19:40:55.887Z,100.00
2023-04-10T19:43:24.077Z,100.00
2023-04-10T19:45:52.956Z,97.25
2023-04-10T19:48:21.118Z,100.00
2023-04-10T19:50:50.644Z,100.00
2023-04-10T19:53:18.785Z,100.00
2023-04-10T19:55:46.982Z,100.00
2023-04-10T19:58:30.514Z,100.00
2023-04-10T20:01:04.411Z,100.00
2023-04-10T20:03:33.248Z,97.62
2023-04-10T20:06:04.556Z,100.00
2023-04-10T20:08:32.765Z,100.00
2023-04-10T20:11:01.829Z,100.00
2023-04-10T20:13:29.981Z,100.00
2023-04-10T20:15:58.238Z,100.00
2023-04-10T20:18:26.473Z,100.00
2023-04-10T20:20:54.910Z,100.00
2023-04-10T20:23:24.470Z,100.00
2023-04-10T20:25:52.795Z,100.00
2023-04-10T20:28:20.994Z,100.00
2023-04-10T20:30:49.173Z,100.00
2023-04-10T20:33:17.410Z,100.00
2023-04-10T20:35:45.786Z,100.00
2023-04-10T20:38:13.986Z,100.00
2023-04-10T20:40:43.486Z,100.00
2023-04-10T20:43:12.352Z,100.00
2023-04-10T20:45:41.092Z,100.00
2023-04-10T20:48:10.160Z,100.00
2023-04-10T20:50:42.885Z,100.00
2023-04-10T20:53:12.605Z,100.00
2023-04-10T20:55:41.321Z,100.00
2023-04-10T20:58:11.027Z,100.00
2023-04-10T21:00:39.693Z,100.00
2023-04-10T21:03:08.326Z,100.00
2023-04-10T21:05:41.456Z,100.00
2023-04-10T21:08:09.940Z,100.00
2023-04-10T21:10:43.914Z,100.00
2023-04-10T21:13:14.488Z,100.00
2023-04-10T21:15:42.866Z,100.00
2023-04-10T21:18:11.551Z,100.00
2023-04-10T21:20:39.729Z,100.00
2023-04-10T21:23:07.947Z,100.00
2023-04-10T21:25:37.417Z,100.00
2023-04-10T21:28:05.863Z,100.00
2023-04-10T21:30:35.447Z,100.00
2023-04-10T21:33:03.734Z,100.00
2023-04-10T21:35:32.016Z,100.00
2023-04-10T21:38:02.312Z,100.00
2023-04-10T21:40:34.030Z,100.00
2023-04-10T21:43:02.566Z,100.00
2023-04-10T21:45:31.186Z,100.00
2023-04-10T21:48:00.964Z,100.00
2023-04-10T21:50:29.226Z,100.00
2023-04-10T21:52:57.558Z,100.00
2023-04-10T21:55:25.785Z,100.00
2023-04-10T21:57:54.022Z,100.00
2023-04-10T22:00:23.253Z,100.00
2023-04-10T22:02:52.208Z,100.00
2023-04-10T22:05:22.683Z,100.00
2023-04-10T22:07:50.918Z,100.00
2023-04-10T22:10:19.325Z,100.00
2023-04-10T22:12:48.741Z,100.00
2023-04-10T22:15:17.438Z,100.00
2023-04-10T22:17:45.942Z,100.00
2023-04-10T22:20:14.281Z,100.00
2023-04-10T22:22:43.869Z,100.00
2023-04-10T22:25:12.080Z,100.00
2023-04-10T22:27:40.350Z,100.00
2023-04-10T22:30:10.273Z,100.00
2023-04-10T22:32:38.573Z,100.00
2023-04-10T22:35:08.753Z,100.00
2023-04-10T22:37:36.992Z,100.00
2023-04-10T22:40:08.651Z,100.00
2023-04-10T22:42:36.863Z,100.00
2023-04-10T22:45:05.941Z,100.00
2023-04-10T22:47:34.202Z,98.81
2023-04-10T22:50:02.408Z,100.00
2023-04-10T22:52:30.635Z,100.00
2023-04-10T22:54:59.134Z,97.16
2023-04-10T22:57:28.703Z,97.27
2023-04-10T22:59:58.813Z,95.51
2023-04-10T23:02:31.275Z,96.06
2023-04-10T23:05:11.267Z,96.42
2023-04-10T23:07:39.489Z,93.85
2023-04-10T23:10:09.791Z,91.00
2023-04-10T23:12:39.453Z,98.19
2023-04-10T23:15:09.214Z,100.00
2023-04-10T23:17:37.516Z,98.52
2023-04-10T23:20:06.848Z,100.00
2023-04-10T23:22:35.080Z,95.87
2023-04-10T23:25:03.408Z,100.00
2023-04-10T23:27:31.605Z,100.00
2023-04-10T23:30:01.967Z,100.00
2023-04-10T23:32:30.324Z,100.00
2023-04-10T23:34:58.610Z,100.00
2023-04-10T23:37:26.983Z,100.00
2023-04-10T23:39:55.191Z,100.00
2023-04-10T23:42:23.393Z,100.00
2023-04-10T23:44:51.919Z,100.00
2023-04-10T23:47:21.481Z,100.00
2023-04-10T23:49:49.695Z,100.00
2023-04-10T23:52:18.211Z,100.00
2023-04-10T23:54:46.430Z,100.00
2023-04-10T23:57:14.589Z,100.00
2023-04-10T23:59:42.781Z,100.00
